Time,TemperatureF,DewpointF,PressureIn,WindDirection,WindDirectionDegrees,WindSpeedMPH,WindSpeedGustMPH,Humidity,HourlyPrecipIn,Conditions,Clouds,dailyrainin,SolarRadiationWatts/m^2,SoftwareType,DateUTC
2013-07-20 00:01:00,70.0,61.0,26.61,NNW,327,0.0,5.0,74,0.01,,,0.54,0.000000,,2013-07-20 06:01:00,
2013-07-20 00:11:00,70.0,61.0,26.61,NNW,327,0.0,5.0,74,0.01,,,0.54,0.000000,,2013-07-20 06:11:00,
2013-07-20 00:21:00,71.0,62.0,26.60,NW,326,0.0,2.0,74,0.01,,,0.54,0.000000,,2013-07-20 06:21:00,
2013-07-20 00:32:00,70.0,61.0,26.59,SE,146,4.0,8.0,72,0.00,,,0.54,0.000000,,2013-07-20 06:32:00,
2013-07-20 00:43:00,70.0,61.0,26.59,SE,146,4.0,8.0,72,0.00,,,0.54,0.000000,,2013-07-20 06:43:00,
2013-07-20 00:52:00,70.0,60.0,26.60,North,355,0.0,11.0,70,0.00,,,0.54,0.000000,,2013-07-20 06:52:00,
2013-07-20 01:01:00,70.0,60.0,26.61,WNW,283,3.0,6.0,70,0.00,,,0.54,0.000000,,2013-07-20 07:01:00,
2013-07-20 01:12:00,70.0,60.0,26.61,WNW,283,3.0,6.0,70,0.00,,,0.54,0.000000,,2013-07-20 07:12:00,
2013-07-20 01:22:00,70.0,59.0,26.59,WNW,284,1.0,8.0,68,0.00,,,0.54,0.000000,,2013-07-20 07:22:00,
2013-07-20 01:33:00,71.0,59.0,26.61,NW,322,2.0,7.0,65,0.00,,,0.54,0.000000,,2013-07-20 07:33:00,
2013-07-20 01:44:00,71.0,59.0,26.61,NW,322,2.0,7.0,65,0.00,,,0.54,0.000000,,2013-07-20 07:44:00,
2013-07-20 01:54:00,71.0,58.0,26.62,NW,313,3.0,8.0,64,0.00,,,0.54,0.000000,,2013-07-20 07:54:00,
2013-07-20 02:01:00,71.0,60.0,26.63,WNW,296,1.0,6.0,69,0.00,,,0.54,0.000000,,2013-07-20 08:01:00,
2013-07-20 02:11:00,71.0,60.0,26.63,WNW,296,1.0,6.0,69,0.00,,,0.54,0.000000,,2013-07-20 08:11:00,
2013-07-20 02:22:00,70.0,61.0,26.60,NNW,328,0.0,0.0,73,0.00,,,0.54,0.000000,,2013-07-20 08:22:00,
2013-07-20 02:32:00,69.0,61.0,26.62,NNW,348,9.0,14.0,76,0.01,,,0.55,0.000000,,2013-07-20 08:32:00,
2013-07-20 02:44:00,69.0,61.0,26.62,NNW,348,9.0,14.0,76,0.01,,,0.55,0.000000,,2013-07-20 08:44:00,
2013-07-20 02:52:00,68.0,61.0,26.62,ENE,57,6.0,8.0,77,0.01,,,0.55,0.000000,,2013-07-20 08:52:00,
2013-07-20 03:02:00,68.0,61.0,26.63,NNW,338,2.0,12.0,78,0.01,,,0.55,0.000000,,2013-07-20 09:02:00,
2013-07-20 03:11:00,68.0,61.0,26.63,NNW,338,2.0,12.0,78,0.01,,,0.55,0.000000,,2013-07-20 09:11:00,
2013-07-20 03:22:00,67.0,61.0,26.61,East,99,4.0,11.0,80,0.01,,,0.56,0.000000,,2013-07-20 09:22:00,
2013-07-20 03:33:00,67.0,61.0,26.61,East,89,4.0,6.0,82,0.01,,,0.56,0.000000,,2013-07-20 09:33:00,
2013-07-20 03:43:00,67.0,61.0,26.61,East,89,4.0,6.0,82,0.01,,,0.56,0.000000,,2013-07-20 09:43:00,
2013-07-20 03:53:00,67.0,62.0,26.61,ESE,121,1.0,6.0,83,0.01,,,0.56,0.000000,,2013-07-20 09:53:00,
2013-07-20 04:01:00,66.0,61.0,26.60,SE,128,2.0,6.0,85,0.01,,,0.56,0.000000,,2013-07-20 10:01:00,
2013-07-20 04:11:00,66.0,61.0,26.60,SE,128,2.0,6.0,85,0.01,,,0.56,0.000000,,2013-07-20 10:11:00,
2013-07-20 04:22:00,66.0,61.0,26.58,SSW,206,6.0,9.0,85,0.00,,,0.37,0.000000,,2013-07-20 10:22:00,
2013-07-20 04:32:00,66.0,62.0,26.58,SW,236,0.0,6.0,86,0.00,,,0.37,0.000000,,2013-07-20 10:32:00,
2013-07-20 04:42:00,66.0,62.0,26.58,SW,236,0.0,6.0,86,0.00,,,0.37,0.000000,,2013-07-20 10:42:00,
2013-07-20 04:52:00,66.0,62.0,26.59,SW,236,0.0,1.0,86,0.00,,,0.37,0.000000,,2013-07-20 10:52:00,
2013-07-20 05:01:00,67.0,62.0,26.59,WSW,248,0.0,4.0,85,0.00,,,0.37,0.000000,,2013-07-20 11:01:00,
2013-07-20 05:11:00,67.0,62.0,26.59,WSW,248,0.0,4.0,85,0.00,,,0.37,0.000000,,2013-07-20 11:11:00,
2013-07-20 05:22:00,66.0,61.0,26.58,South,190,0.0,7.0,85,0.00,,,0.36,0.000000,,2013-07-20 11:22:00,
2013-07-20 05:32:00,67.0,62.0,26.58,SSW,205,3.0,7.0,84,0.00,,,0.36,0.000000,,2013-07-20 11:32:00,
2013-07-20 05:43:00,67.0,62.0,26.58,SSW,205,3.0,7.0,84,0.00,,,0.36,0.000000,,2013-07-20 11:43:00,
2013-07-20 05:52:00,67.0,61.0,26.57,SSW,210,0.0,0.0,81,0.00,,,0.36,14.000000,,2013-07-20 11:52:00,
2013-07-20 06:01:00,67.0,61.0,26.58,WSW,242,0.0,7.0,80,0.00,,,0.36,32.000000,,2013-07-20 12:01:00,
2013-07-20 06:11:00,67.0,61.0,26.58,WSW,242,0.0,7.0,80,0.00,,,0.36,32.000000,,2013-07-20 12:11:00,
2013-07-20 06:22:00,69.0,61.0,26.57,SSE,155,0.0,9.0,75,0.00,,,0.36,18.000000,,2013-07-20 12:22:00,
2013-07-20 06:32:00,68.0,59.0,26.57,SW,223,3.0,6.0,74,0.00,,,0.36,19.000000,,2013-07-20 12:32:00,
2013-07-20 06:52:00,68.0,59.0,26.56,WSW,241,4.0,10.0,73,0.00,,,0.36,33.000000,,2013-07-20 12:52:00,
2013-07-20 07:01:00,69.0,59.0,26.57,SW,225,4.0,8.0,70,0.00,,,0.36,84.000000,,2013-07-20 13:01:00,
2013-07-20 07:11:00,69.0,59.0,26.57,SW,225,4.0,8.0,70,0.00,,,0.36,84.000000,,2013-07-20 13:11:00,
2013-07-20 07:22:00,70.0,59.0,26.57,South,186,5.0,9.0,67,0.00,,,0.36,72.000000,,2013-07-20 13:22:00,
2013-07-20 07:32:00,71.0,59.0,26.57,ESE,115,0.0,5.0,67,0.00,,,0.36,206.000000,,2013-07-20 13:32:00,
2013-07-20 07:43:00,71.0,59.0,26.57,ESE,115,0.0,5.0,67,0.00,,,0.36,206.000000,,2013-07-20 13:43:00,
2013-07-20 07:53:00,71.0,59.0,26.57,South,176,1.0,6.0,67,0.00,,,0.36,120.000000,,2013-07-20 13:53:00,
2013-07-20 08:02:00,71.0,61.0,26.58,NNW,345,1.0,6.0,70,0.00,,,0.36,109.000000,,2013-07-20 14:02:00,
2013-07-20 08:11:00,71.0,61.0,26.58,NNW,345,1.0,6.0,70,0.00,,,0.36,109.000000,,2013-07-20 14:11:00,
2013-07-20 08:22:00,70.0,60.0,26.58,NE,46,0.0,5.0,70,0.00,,,0.36,167.000000,,2013-07-20 14:22:00,
2013-07-20 08:32:00,71.0,62.0,26.58,ENE,63,1.0,5.0,72,0.00,,,0.36,151.000000,,2013-07-20 14:32:00,
2013-07-20 08:43:00,71.0,62.0,26.58,ENE,63,1.0,5.0,72,0.00,,,0.36,151.000000,,2013-07-20 14:43:00,
2013-07-20 08:53:00,71.0,62.0,26.58,NE,42,4.0,7.0,72,0.00,,,0.36,441.000000,,2013-07-20 14:53:00,
2013-07-20 09:01:00,72.0,62.0,26.58,NNE,26,2.0,7.0,70,0.00,,,0.36,533.000000,,2013-07-20 15:01:00,
2013-07-20 09:11:00,72.0,62.0,26.58,NNE,26,2.0,7.0,70,0.00,,,0.36,533.000000,,2013-07-20 15:11:00,
2013-07-20 09:22:00,73.0,61.0,26.59,NNE,32,4.0,9.0,67,0.00,,,0.36,587.000000,,2013-07-20 15:22:00,
2013-07-20 09:33:00,74.0,61.0,26.59,ENE,59,2.0,8.0,65,0.00,,,0.36,605.000000,,2013-07-20 15:33:00,
2013-07-20 09:44:00,74.0,61.0,26.59,ENE,59,2.0,8.0,65,0.00,,,0.36,605.000000,,2013-07-20 15:44:00,
2013-07-20 09:53:00,75.0,62.0,26.59,ENE,58,4.0,8.0,64,0.00,,,0.36,635.000000,,2013-07-20 15:53:00,
2013-07-20 10:01:00,75.0,62.0,26.59,NE,40,4.0,8.0,64,0.00,,,0.36,666.000000,,2013-07-20 16:01:00,
2013-07-20 10:11:00,75.0,62.0,26.59,NE,40,4.0,8.0,64,0.00,,,0.36,666.000000,,2013-07-20 16:11:00,
2013-07-20 10:22:00,75.0,62.0,26.59,ESE,105,4.0,9.0,65,0.00,,,0.36,705.000000,,2013-07-20 16:22:00,
2013-07-20 10:43:00,77.0,63.0,26.59,East,95,4.0,10.0,61,0.00,,,0.36,744.000000,,2013-07-20 16:43:00,
2013-07-20 10:52:00,76.0,62.0,26.59,NE,34,4.0,8.0,61,0.00,,,0.36,772.000000,,2013-07-20 16:52:00,
2013-07-20 11:02:00,78.0,63.0,26.58,East,80,2.0,7.0,60,0.00,,,0.36,807.000000,,2013-07-20 17:02:00,
2013-07-20 11:11:00,78.0,63.0,26.58,East,80,2.0,7.0,60,0.00,,,0.36,807.000000,,2013-07-20 17:11:00,
2013-07-20 11:22:00,79.0,62.0,26.58,NE,51,3.0,8.0,57,0.00,,,0.36,837.000000,,2013-07-20 17:22:00,
2013-07-20 11:32:00,80.0,62.0,26.58,North,355,1.0,6.0,54,0.00,,,0.36,860.000000,,2013-07-20 17:32:00,
2013-07-20 11:43:00,80.0,62.0,26.58,North,355,1.0,6.0,54,0.00,,,0.36,860.000000,,2013-07-20 17:43:00,
2013-07-20 11:53:00,81.0,63.0,26.57,ENE,77,1.0,6.0,54,0.00,,,0.36,882.000000,,2013-07-20 17:53:00,
2013-07-20 12:01:00,81.0,61.0,26.57,NE,45,6.0,10.0,51,0.00,,,0.36,896.000000,,2013-07-20 18:01:00,
2013-07-20 12:11:00,81.0,61.0,26.57,NE,45,6.0,10.0,51,0.00,,,0.36,896.000000,,2013-07-20 18:11:00,
2013-07-20 12:24:00,81.0,62.0,26.57,ENE,61,4.0,9.0,53,0.00,,,0.36,981.000000,,2013-07-20 18:24:00,
2013-07-20 12:35:00,80.0,62.0,26.57,NE,34,6.0,11.0,54,0.00,,,0.36,121.000000,,2013-07-20 18:35:00,
2013-07-20 12:44:00,80.0,62.0,26.57,NE,34,6.0,11.0,54,0.00,,,0.36,121.000000,,2013-07-20 18:44:00,
2013-07-20 12:58:00,80.0,63.0,26.57,ESE,105,3.0,9.0,57,0.00,,,0.36,944.000000,,2013-07-20 18:58:00,
2013-07-20 13:04:00,81.0,62.0,26.56,NE,41,7.0,12.0,53,0.00,,,0.36,1063.000000,,2013-07-20 19:04:00,
2013-07-20 13:14:00,81.0,62.0,26.56,NE,41,7.0,12.0,53,0.00,,,0.36,1063.000000,,2013-07-20 19:14:00,
2013-07-20 13:24:00,79.0,63.0,26.55,NE,53,6.0,13.0,58,0.00,,,0.36,262.000000,,2013-07-20 19:24:00,
2013-07-20 13:33:00,80.0,63.0,26.54,North,5,6.0,15.0,56,0.00,,,0.36,1078.000000,,2013-07-20 19:33:00,
2013-07-20 13:43:00,80.0,63.0,26.54,North,5,6.0,15.0,56,0.00,,,0.36,1078.000000,,2013-07-20 19:43:00,
2013-07-20 13:56:00,79.0,62.0,26.56,NNE,31,6.0,11.0,57,0.00,,,0.36,63.000000,,2013-07-20 19:56:00,
2013-07-20 14:04:00,79.0,62.0,26.56,NNE,26,8.0,12.0,56,0.00,,,0.36,47.000000,,2013-07-20 20:04:00,
2013-07-20 14:14:00,79.0,62.0,26.56,NNE,26,8.0,12.0,56,0.00,,,0.36,47.000000,,2013-07-20 20:14:00,
2013-07-20 14:23:00,79.0,62.0,26.57,NE,50,2.0,9.0,56,0.00,,,0.36,42.000000,,2013-07-20 20:23:00,
2013-07-20 14:33:00,79.0,62.0,26.57,North,5,3.0,9.0,56,0.00,,,0.36,98.000000,,2013-07-20 20:33:00,
2013-07-20 14:45:00,79.0,62.0,26.57,North,5,3.0,9.0,56,0.00,,,0.36,98.000000,,2013-07-20 20:45:00,
2013-07-20 14:57:00,79.0,61.0,26.58,ESE,109,5.0,6.0,55,0.00,,,0.36,169.000000,,2013-07-20 20:57:00,
2013-07-20 15:02:00,80.0,61.0,26.57,East,101,2.0,5.0,53,0.00,,,0.36,153.000000,,2013-07-20 21:02:00,
2013-07-20 15:13:00,80.0,61.0,26.57,East,101,2.0,5.0,53,0.00,,,0.36,153.000000,,2013-07-20 21:13:00,
2013-07-20 15:33:00,79.0,61.0,26.56,ESE,123,3.0,6.0,55,0.00,,,0.36,49.000000,,2013-07-20 21:33:00,
2013-07-20 15:44:00,79.0,61.0,26.56,ESE,123,3.0,6.0,55,0.00,,,0.36,49.000000,,2013-07-20 21:44:00,
2013-07-20 15:56:00,78.0,62.0,26.55,ESE,119,8.0,11.0,57,0.00,,,0.36,26.000000,,2013-07-20 21:56:00,
2013-07-20 16:05:00,78.0,62.0,26.55,ESE,119,8.0,11.0,57,0.00,,,0.36,26.000000,,2013-07-20 22:05:00,
2013-07-20 16:14:00,78.0,62.0,26.55,ESE,119,8.0,11.0,57,0.00,,,0.36,26.000000,,2013-07-20 22:14:00,
2013-07-20 16:25:00,78.0,62.0,26.55,ESE,119,8.0,11.0,57,0.00,,,0.36,26.000000,,2013-07-20 22:25:00,